Time,TemperatureF,DewpointF,PressureIn,WindDirection,WindDirectionDegrees,WindSpeedMPH,WindSpeedGustMPH,Humidity,HourlyPrecipIn,Conditions,Clouds,dailyrainin,SoftwareType,DateUTC
2013-09-02 09:55:00,67.0,36.0,-100.00,SE,136,3.0,4.0,32,0.00,,,0.00,,2013-09-02 15:55:00,
2013-09-02 10:04:00,67.0,36.0,-100.00,SE,136,3.0,4.0,32,0.00,,,0.00,,2013-09-02 16:04:00,
2013-09-02 10:53:00,66.0,38.0,-100.00,ESE,113,3.0,6.0,35,0.00,,,0.00,,2013-09-02 16:53:00,
2013-09-02 11:03:00,66.0,38.0,-100.00,ESE,113,3.0,6.0,35,0.00,,,0.00,,2013-09-02 17:03:00,
2013-09-02 11:23:00,66.0,39.0,-100.00,SE,130,6.0,8.0,37,0.00,,,0.00,,2013-09-02 17:23:00,
2013-09-02 11:34:00,66.0,39.0,-100.00,SE,130,6.0,8.0,37,0.00,,,0.00,,2013-09-02 17:34:00,
2013-09-02 11:52:00,68.0,41.0,-100.00,ESE,112,13.0,16.0,37,0.00,,,0.00,,2013-09-02 17:52:00,
2013-09-02 12:02:00,68.0,41.0,-100.00,ESE,112,13.0,16.0,37,0.00,,,0.00,,2013-09-02 18:02:00,
2013-09-02 12:13:00,68.0,41.0,-100.00,ESE,112,13.0,16.0,37,0.00,,,0.00,,2013-09-02 18:13:00,
2013-09-02 12:42:00,67.0,48.0,-100.00,SE,126,16.0,23.0,51,0.00,,,0.00,,2013-09-02 18:42:00,
2013-09-02 13:12:00,67.0,51.0,-100.00,SSE,150,15.0,18.0,56,0.00,,,0.00,,2013-09-02 19:12:00,
2013-09-02 13:42:00,64.0,53.0,-100.00,ESE,113,9.0,12.0,69,0.00,,,0.00,,2013-09-02 19:42:00,
2013-09-02 14:12:00,65.0,53.0,-100.00,East,92,9.0,12.0,65,0.00,,,0.01,,2013-09-02 20:12:00,
2013-09-02 14:22:00,65.0,53.0,-100.00,East,92,9.0,12.0,65,0.00,,,0.01,,2013-09-02 20:22:00,
2013-09-02 14:42:00,66.0,52.0,-100.00,SE,137,7.0,10.0,62,0.00,,,0.01,,2013-09-02 20:42:00,
2013-09-02 15:12:00,66.0,53.0,-100.00,SE,141,8.0,11.0,63,0.00,,,0.01,,2013-09-02 21:12:00,
2013-09-02 15:44:00,66.0,54.0,-100.00,SE,144,6.0,8.0,65,0.00,,,0.01,,2013-09-02 21:44:00,
2013-09-02 15:55:00,66.0,54.0,-100.00,SE,144,6.0,8.0,65,0.00,,,0.01,,2013-09-02 21:55:00,
2013-09-02 16:04:00,66.0,54.0,-100.00,SE,144,6.0,8.0,65,0.00,,,0.01,,2013-09-02 22:04:00,
2013-09-02 16:23:00,64.0,55.0,-100.00,SSE,150,5.0,6.0,74,0.00,,,0.02,,2013-09-02 22:23:00,
2013-09-02 16:33:00,64.0,55.0,-100.00,SSE,150,5.0,6.0,74,0.00,,,0.02,,2013-09-02 22:33:00,
2013-09-02 16:54:00,64.0,55.0,-100.00,East,86,2.0,4.0,72,0.00,,,0.02,,2013-09-02 22:54:00,
2013-09-02 17:03:00,64.0,55.0,-100.00,East,86,2.0,4.0,72,0.00,,,0.02,,2013-09-02 23:03:00,
2013-09-02 17:22:00,65.0,54.0,-100.00,ENE,72,7.0,8.0,67,0.00,,,0.02,,2013-09-02 23:22:00,
2013-09-02 17:34:00,65.0,54.0,-100.00,ENE,72,7.0,8.0,67,0.00,,,0.02,,2013-09-02 23:34:00,
2013-09-02 17:53:00,66.0,54.0,-100.00,ENE,76,2.0,4.0,66,0.00,,,0.02,,2013-09-02 23:53:00,
2013-09-02 18:01:00,66.0,54.0,-100.00,ENE,76,2.0,4.0,66,0.00,,,0.02,,2013-09-03 00:01:00,
2013-09-02 18:21:00,66.0,54.0,-100.00,ENE,64,3.0,4.0,66,0.00,,,0.02,,2013-09-03 00:21:00,
2013-09-02 18:32:00,66.0,54.0,-100.00,ENE,64,3.0,4.0,66,0.00,,,0.02,,2013-09-03 00:32:00,
2013-09-02 18:52:00,67.0,54.0,-100.00,ENE,73,6.0,8.0,64,0.00,,,0.02,,2013-09-03 00:52:00,
2013-09-02 19:01:00,67.0,54.0,-100.00,ENE,73,6.0,8.0,64,0.00,,,0.02,,2013-09-03 01:01:00,
2013-09-02 19:21:00,67.0,54.0,-100.00,ENE,61,4.0,6.0,64,0.00,,,0.02,,2013-09-03 01:21:00,
2013-09-02 19:32:00,67.0,54.0,-100.00,ENE,61,4.0,6.0,64,0.00,,,0.02,,2013-09-03 01:32:00,
2013-09-02 19:52:00,67.0,54.0,-100.00,NE,41,1.0,3.0,65,0.00,,,0.02,,2013-09-03 01:52:00,
2013-09-02 20:02:00,67.0,54.0,-100.00,NE,41,1.0,3.0,65,0.00,,,0.02,,2013-09-03 02:02:00,
2013-09-02 20:21:00,64.0,53.0,-100.00,NNW,347,6.0,7.0,69,0.00,,,0.02,,2013-09-03 02:21:00,
2013-09-02 20:33:00,64.0,53.0,-100.00,NNW,347,6.0,7.0,69,0.00,,,0.02,,2013-09-03 02:33:00,
2013-09-02 20:52:00,62.0,53.0,-100.00,NNW,340,2.0,4.0,73,0.00,,,0.02,,2013-09-03 02:52:00,
2013-09-02 21:02:00,62.0,53.0,-100.00,NNW,340,2.0,4.0,73,0.00,,,0.02,,2013-09-03 03:02:00,
2013-09-02 21:23:00,62.0,53.0,-100.00,ENE,61,8.0,11.0,74,0.00,,,0.02,,2013-09-03 03:23:00,
2013-09-02 21:34:00,62.0,53.0,-100.00,ENE,61,8.0,11.0,74,0.00,,,0.02,,2013-09-03 03:34:00,
2013-09-02 21:55:00,61.0,53.0,-100.00,NNE,21,4.0,6.0,77,0.00,,,0.02,,2013-09-03 03:55:00,
2013-09-02 22:04:00,61.0,53.0,-100.00,NNE,21,4.0,6.0,77,0.00,,,0.02,,2013-09-03 04:04:00,
2013-09-02 22:24:00,59.0,53.0,-100.00,ENE,72,2.0,3.0,81,0.00,,,0.02,,2013-09-03 04:24:00,
2013-09-02 22:33:00,59.0,53.0,-100.00,ENE,72,2.0,3.0,81,0.00,,,0.02,,2013-09-03 04:33:00,
2013-09-02 22:53:00,57.0,53.0,-100.00,WNW,295,1.0,2.0,85,0.00,,,0.02,,2013-09-03 04:53:00,
2013-09-02 23:03:00,57.0,53.0,-100.00,WNW,295,1.0,2.0,85,0.00,,,0.02,,2013-09-03 05:03:00,
2013-09-02 23:23:00,56.0,53.0,-100.00,NNE,21,1.0,2.0,88,0.00,,,0.02,,2013-09-03 05:23:00,
2013-09-02 23:34:00,56.0,53.0,-100.00,NNE,21,1.0,2.0,88,0.00,,,0.02,,2013-09-03 05:34:00,
2013-09-02 23:52:00,54.0,51.0,-100.00,NNE,14,2.0,2.0,90,0.00,,,0.02,,2013-09-03 05:52:00,